Time;durP1;ratioP1;P1;durP2;ratioP2;P2;SDS_P1;SDS_P2;PMS_P1;PMS_P2;Temp;Humidity;BMP_temperature;BMP_pressure;BME280_temperature;BME280_humidity;BME280_pressure;Samples;Min_cycle;Max_cycle;Signal;HPM_P1;HPM_P2
2023/10/05 00:01:12;;;;;;;6.00;2.28;;;;;;;;;;4972184;28;20051;-64
2023/10/05 00:03:44;;;;;;;5.65;1.90;;;20.60;92.90;;;;;;4980248;28;20066;-66
2023/10/05 00:06:14;;;;;;;6.57;2.10;;;20.50;92.80;;;;;;4973818;28;20177;-66
2023/10/05 00:08:44;;;;;;;4.50;1.95;;;20.60;91.60;;;;;;4980618;28;20436;-66
2023/10/05 00:11:14;;;;;;;4.68;1.83;;;20.60;93.40;;;;;;4974773;28;20050;-66
2023/10/05 00:13:40;;;;;;;5.22;1.95;;;;;;;;;;4990833;28;20062;-66
2023/10/05 00:16:06;;;;;;;5.80;2.05;;;20.60;92.90;;;;;;4991687;28;20047;-66
2023/10/05 00:18:33;;;;;;;5.18;1.85;;;;;;;;;;4989503;28;20042;-66
2023/10/05 00:21:00;;;;;;;4.75;1.70;;;;;;;;;;4987293;28;20121;-66
2023/10/05 00:23:27;;;;;;;6.25;1.98;;;;;;;;;;4974729;28;20121;-66
2023/10/05 00:25:55;;;;;;;4.18;1.90;;;;;;;;;;4973405;28;20505;-66
2023/10/05 00:28:24;;;;;;;5.22;1.92;;;;;;;;;;4967123;28;20053;-66
2023/10/05 00:30:52;;;;;;;4.95;2.08;;;20.60;92.90;;;;;;4972370;28;20392;-67
2023/10/05 00:33:18;;;;;;;6.13;1.98;;;20.70;92.90;;;;;;4985224;28;20054;-66
2023/10/05 00:35:44;;;;;;;5.82;1.88;;;20.60;93.00;;;;;;4989047;28;20137;-66
2023/10/05 00:38:14;;;;;;;4.93;2.03;;;20.60;92.90;;;;;;4973387;28;20551;-66
2023/10/05 00:40:51;;;;;;;5.85;2.17;;;20.60;93.00;;;;;;4994359;28;20042;-66
2023/10/05 00:45:47;;;;;;;4.43;1.63;;;20.70;93.00;;;;;;4978322;28;20057;-66
2023/10/05 00:48:27;;;;;;;6.20;1.98;;;20.50;92.90;;;;;;4977029;28;20113;-66
2023/10/05 00:50:56;;;;;;;6.32;2.08;;;20.50;92.90;;;;;;4963089;28;20086;-66
2023/10/05 00:53:23;;;;;;;4.32;1.85;;;;;;;;;;4991940;28;20038;-67
2023/10/05 00:55:52;;;;;;;7.10;2.33;;;20.70;91.80;;;;;;4978028;28;20093;-65
2023/10/05 00:58:18;;;;;;;5.10;1.92;;;;;;;;;;4960318;28;20054;-66
2023/10/05 01:00:50;;;;;;;6.72;2.13;;;;;;;;;;4993499;28;20548;-65
2023/10/05 01:03:23;;;;;;;5.53;2.13;;;;;;;;;;4991203;28;20082;-65
2023/10/05 01:05:55;;;;;;;;;;;20.50;91.30;;;;;;4993347;28;20064;-65
2023/10/05 01:08:23;;;;;;;4.93;1.88;;;20.50;91.50;;;;;;4976433;28;19933;-65
2023/10/05 01:10:53;;;;;;;5.53;1.98;;;20.60;93.00;;;;;;4989215;28;20046;-65
2023/10/05 01:13:30;;;;;;;4.72;1.75;;;20.50;93.00;;;;;;4976933;28;20042;-65
2023/10/05 01:15:57;;;;;;;5.90;1.63;;;22.10;92.00;;;;;;4977545;28;20054;-64
2023/10/05 01:18:27;;;;;;;5.32;1.90;;;;;;;;;;4993568;28;20493;-65
2023/10/05 01:21:01;;;;;;;5.50;1.98;;;;;;;;;;4992247;28;20121;-65
2023/10/05 01:23:37;;;;;;;5.10;2.05;;;20.30;93.40;;;;;;4993157;28;20058;-65
2023/10/05 01:26:10;;;;;;;5.10;1.88;;;20.80;91.80;;;;;;4978987;28;20050;-65
2023/10/05 01:28:41;;;;;;;;;;;20.40;91.40;;;;;;4962862;28;20042;-65
2023/10/05 01:31:10;;;;;;;4.50;1.73;;;;;;;;;;4991089;28;19922;-65
2023/10/05 01:33:37;;;;;;;6.25;1.98;;;;;;;;;;5001321;28;20049;-65
2023/10/05 01:36:04;;;;;;;6.90;1.95;;;;;;;;;;5001235;28;20054;-65
2023/10/05 01:38:37;;;;;;;4.82;1.92;;;20.30;91.80;;;;;;4989902;28;20054;-64
2023/10/05 01:41:03;;;;;;;6.30;2.13;;;;;;;;;;4993204;28;20496;-65
2023/10/05 01:43:29;;;;;;;7.93;1.92;;;;;;;;;;4971739;28;20042;-65
2023/10/05 01:45:56;;;;;;;6.00;2.10;;;;;;;;;;4985360;28;20084;-65
2023/10/05 01:48:26;;;;;;;4.70;1.80;;;20.40;93.00;;;;;;4994141;28;20081;-65
2023/10/05 01:50:52;;;;;;;5.40;2.03;;;;;;;;;;4990596;28;20054;-65
2023/10/05 01:53:18;;;;;;;5.78;2.05;;;;;;;;;;4993533;28;20514;-65
2023/10/05 01:55:49;;;;;;;6.50;2.35;;;;;;;;;;4993366;28;20061;-65
2023/10/05 01:58:22;;;;;;;4.90;1.73;;;;;;;;;;4991570;28;20066;-63
2023/10/05 02:00:48;;;;;;;5.93;2.08;;;20.60;93.10;;;;;;4991251;28;20081;-65
2023/10/05 02:03:17;;;;;;;7.35;2.03;;;;;;;;;;4988272;28;20144;-64
2023/10/05 02:05:44;;;;;;;5.45;1.98;;;20.50;93.20;;;;;;4991965;28;20055;-65
2023/10/05 02:08:13;;;;;;;5.50;2.20;;;;;;;;;;4993043;28;20054;-65
2023/10/05 02:10:40;;;;;;;5.13;1.70;;;;;;;;;;4991351;28;20117;-65
2023/10/05 02:13:11;;;;;;;4.93;2.00;;;;;;;;;;5000234;28;20177;-65
2023/10/05 02:15:41;;;;;;;4.05;1.65;;;20.50;93.20;;;;;;4992548;28;20056;-65
2023/10/05 02:21:08;;;;;;;5.95;1.92;;;;;;;;;;5025044;28;20100;-65
2023/10/05 02:23:40;;;;;;;5.60;1.80;;;;;;;;;;5013776;28;20136;-65
2023/10/05 02:26:23;;;;;;;5.57;1.98;;;;;;;;;;5012697;28;20116;-65
2023/10/05 02:28:50;;;;;;;4.80;1.83;;;;;;;;;;5027373;28;20057;-65
2023/10/05 02:31:15;;;;;;;4.82;1.70;;;20.60;93.20;;;;;;5030024;28;20098;-65
2023/10/05 02:33:43;;;;;;;7.32;2.40;;;;;;;;;;5029400;28;20045;-65
2023/10/05 02:38:36;;;;;;;5.72;1.85;;;;;;;;;;5026663;28;20129;-65
2023/10/05 02:41:04;;;;;;;6.50;1.95;;;;;;;;;;5020550;28;20049;-65
2023/10/05 02:43:38;;;;;;;5.53;2.10;;;20.50;91.90;;;;;;5018496;28;20520;-65
2023/10/05 02:46:11;;;;;;;6.45;2.20;;;;;;;;;;5010137;28;20053;-65
2023/10/05 02:48:38;;;;;;;;;;;20.50;91.40;;;;;;5029384;28;20230;-65
2023/10/05 02:51:05;;;;;;;6.63;2.25;;;20.50;91.70;;;;;;5013278;28;19932;-65
2023/10/05 02:53:40;;;;;;;7.40;2.42;;;20.60;92.10;;;;;;5020600;28;20187;-65
2023/10/05 02:56:26;;;;;;;6.38;1.98;;;20.50;93.20;;;;;;5011202;28;20054;-65
2023/10/05 02:59:00;;;;;;;3.83;1.88;;;20.50;93.30;;;;;;4989925;28;20061;-65
2023/10/05 03:01:26;;;;;;;6.45;2.03;;;20.50;93.30;;;;;;4968158;28;20046;-65
2023/10/05 03:03:55;;;;;;;7.07;2.35;;;;;;;;;;4972605;28;20054;-65
2023/10/05 03:06:23;;;;;;;6.32;2.15;;;20.40;93.20;;;;;;4983254;28;20710;-65
2023/10/05 03:08:49;;;;;;;5.93;2.13;;;;;;;;;;4973695;28;20089;-65
2023/10/05 03:11:18;;;;;;;5.82;2.03;;;;;;;;;;4974895;28;20121;-65
2023/10/05 03:13:44;;;;;;;6.47;1.92;;;;;;;;;;4977277;28;20065;-64
2023/10/05 03:16:10;;;;;;;7.55;2.20;;;;;;;;;;4991162;28;20408;-65
2023/10/05 03:18:42;;;;;;;5.10;1.90;;;20.60;91.50;;;;;;4987025;28;20046;-64
2023/10/05 03:21:09;;;;;;;7.05;2.30;;;20.30;93.30;;;;;;4990268;28;20050;-65
2023/10/05 03:23:37;;;;;;;10.07;2.53;;;;;;;;;;4975667;28;20054;-65
2023/10/05 03:26:03;;;;;;;9.15;2.00;;;;;;;;;;4988290;28;20068;-65
2023/10/05 03:28:30;;;;;;;5.93;2.17;;;;;;;;;;4973771;28;20050;-65
2023/10/05 03:30:57;;;;;;;6.90;1.98;;;;;;;;;;4991258;28;20591;-65
2023/10/05 03:33:25;;;;;;;5.70;1.88;;;;;;;;;;4991370;28;20050;-65
2023/10/05 03:35:56;;;;;;;5.40;1.80;;;;;;;;;;5000397;28;20049;-65
2023/10/05 03:38:22;;;;;;;5.35;1.85;;;20.60;93.40;;;;;;4971071;28;20050;-65
2023/10/05 03:40:48;;;;;;;6.07;2.20;;;;;;;;;;4974619;28;20054;-65
2023/10/05 03:43:14;;;;;;;5.97;1.98;;;20.40;93.40;;;;;;4983711;28;20097;-65
2023/10/05 03:45:40;;;;;;;5.00;1.77;;;;;;;;;;4977404;28;20488;-65
2023/10/05 03:48:07;;;;;;;6.15;2.10;;;20.40;93.40;;;;;;4972096;28;20113;-65
2023/10/05 03:50:33;;;;;;;7.32;2.05;;;;;;;;;;4974637;28;20042;-65
2023/10/05 03:52:59;;;;;;;5.78;2.20;;;;;;;;;;4989348;28;20058;-65
2023/10/05 03:55:25;;;;;;;4.35;1.80;;;;;;;;;;4990024;28;20141;-65
2023/10/05 03:57:52;;;;;;;4.45;1.75;;;;;;;;;;4990968;28;20145;-65
2023/10/05 04:00:31;;;;;;;5.65;2.17;;;20.40;93.40;;;;;;4972697;28;20056;-65
2023/10/05 04:02:58;;;;;;;6.95;2.22;;;;;;;;;;4963940;28;20437;-64
2023/10/05 04:05:24;;;;;;;5.57;2.00;;;;;;;;;;4987615;28;20413;-65
2023/10/05 04:07:52;;;;;;;5.85;2.10;;;;;;;;;;4974193;28;20054;-64
2023/10/05 04:10:23;;;;;;;8.52;2.97;;;20.50;93.50;;;;;;4985460;28;20559;-65
2023/10/05 04:12:51;;;;;;;7.20;2.13;;;20.40;93.40;;;;;;4980637;28;20065;-65
2023/10/05 04:15:20;;;;;;;4.88;1.92;;;;;;;;;;4977725;28;20050;-65
2023/10/05 04:17:49;;;;;;;7.03;2.40;;;;;;;;;;4985936;28;20050;-65
2023/10/05 04:20:28;;;;;;;7.28;2.30;;;;;;;;;;4996319;28;20049;-64
2023/10/05 04:22:57;;;;;;;6.53;2.17;;;20.60;93.50;;;;;;4988658;28;20178;-66
2023/10/05 04:25:23;;;;;;;6.35;2.05;;;20.30;93.40;;;;;;4990262;28;20050;-66
2023/10/05 04:27:49;;;;;;;5.65;1.95;;;20.40;93.50;;;;;;4976453;28;20038;-65
2023/10/05 04:30:21;;;;;;;6.40;2.13;;;20.40;93.50;;;;;;4992782;28;20464;-65
2023/10/05 04:32:50;;;;;;;5.93;1.92;;;20.40;93.50;;;;;;4979799;28;20124;-65
2023/10/05 04:35:26;;;;;;;7.13;2.10;;;;;;;;;;4992367;28;20056;-65
2023/10/05 04:37:54;;;;;;;5.80;2.00;;;;;;;;;;4961825;28;20054;-65
2023/10/05 04:40:22;;;;;;;5.82;2.55;;;20.40;93.50;;;;;;4992172;28;20101;-64
2023/10/05 04:42:50;;;;;;;7.40;2.05;;;;;;;;;;4978402;28;20046;-65
2023/10/05 04:45:17;;;;;;;8.05;2.40;;;;;;;;;;4991478;28;20420;-64
2023/10/05 04:47:45;;;;;;;6.47;2.40;;;20.40;93.50;;;;;;4995953;28;20067;-65
2023/10/05 04:50:15;;;;;;;7.35;2.20;;;20.40;93.60;;;;;;4993671;28;20092;-66
2023/10/05 04:52:41;;;;;;;6.93;2.20;;;20.30;93.50;;;;;;4981308;28;20046;-65
2023/10/05 04:57:55;;;;;;;7.75;2.30;;;;;;;;;;4981688;28;20062;-65
2023/10/05 05:03:17;;;;;;;6.63;2.20;;;;;;;;;;4995595;28;20050;-65
2023/10/05 05:06:10;;;;;;;6.10;2.35;;;20.60;92.50;;;;;;4980047;28;20094;-65
2023/10/05 05:08:38;;;;;;;6.22;2.20;;;;;;;;;;4993475;28;20046;-65
2023/10/05 05:11:18;;;;;;;6.60;2.20;;;20.30;92.50;;;;;;4978428;28;20403;-65
2023/10/05 05:13:44;;;;;;;6.50;2.22;;;;;;;;;;4994202;28;20116;-65
2023/10/05 05:16:11;;;;;;;5.25;2.22;;;20.40;93.60;;;;;;4994291;28;20084;-65
2023/10/05 05:18:37;;;;;;;6.55;2.10;;;;;;;;;;4998457;28;20045;-65
2023/10/05 05:21:07;;;;;;;5.88;2.15;;;20.40;93.70;;;;;;4992430;28;20058;-66
2023/10/05 05:23:34;;;;;;;7.85;2.30;;;20.30;92.20;;;;;;4993816;28;20294;-65
2023/10/05 05:26:00;;;;;;;5.90;2.03;;;;;;;;;;4982966;28;20416;-66
2023/10/05 05:28:26;;;;;;;5.78;2.40;;;;;;;;;;4992301;28;20450;-65
2023/10/05 05:30:53;;;;;;;7.07;2.13;;;;;;;;;;4993005;28;20385;-66
2023/10/05 05:33:19;;;;;;;6.72;2.45;;;20.40;93.60;;;;;;4994948;28;20046;-66
2023/10/05 05:35:46;;;;;;;6.95;2.30;;;20.30;93.70;;;;;;4995205;28;20108;-65
2023/10/05 05:38:12;;;;;;;8.30;2.42;;;;;;;;;;4993777;28;20105;-66
2023/10/05 05:40:38;;;;;;;5.78;2.00;;;20.50;93.60;;;;;;4992259;28;20038;-65
2023/10/05 05:43:08;;;;;;;6.30;2.20;;;;;;;;;;4982398;28;20509;-66
2023/10/05 05:45:43;;;;;;;8.10;2.33;;;20.50;92.40;;;;;;4983234;28;20066;-65
2023/10/05 05:48:13;;;;;;;5.65;2.28;;;20.50;92.40;;;;;;4976826;28;20042;-65
2023/10/05 05:50:42;;;;;;;7.10;2.00;;;20.50;93.50;;;;;;4993204;28;20054;-66
2023/10/05 05:53:11;;;;;;;6.32;2.63;;;;;;;;;;4998016;28;20133;-66
2023/10/05 05:55:53;;;;;;;8.30;2.70;;;20.50;93.50;;;;;;4975254;28;20050;-65
2023/10/05 05:58:19;;;;;;;8.27;2.53;;;20.40;93.50;;;;;;4993455;28;20062;-66
2023/10/05 06:00:46;;;;;;;8.88;2.58;;;20.60;93.60;;;;;;4985326;28;20109;-66
2023/10/05 06:03:12;;;;;;;8.25;2.47;;;20.50;93.50;;;;;;4972396;28;20129;-66
2023/10/05 06:05:39;;;;;;;6.65;2.70;;;20.40;93.50;;;;;;4986527;28;20519;-65
2023/10/05 06:08:09;;;;;;;7.63;2.70;;;20.50;93.40;;;;;;4985530;28;20160;-66
2023/10/05 06:10:35;;;;;;;8.07;2.60;;;20.60;93.70;;;;;;4997284;28;20042;-65
2023/10/05 06:13:01;;;;;;;6.32;2.35;;;20.60;93.40;;;;;;4995689;28;20065;-65
2023/10/05 06:15:28;;;;;;;6.30;2.20;;;20.50;93.40;;;;;;4993469;28;20038;-66
2023/10/05 06:17:54;;;;;;;5.28;1.98;;;;;;;;;;4991506;28;20270;-66
2023/10/05 06:20:21;;;;;;;8.68;2.30;;;;;;;;;;4992019;28;20372;-66
2023/10/05 06:22:49;;;;;;;8.38;2.50;;;;;;;;;;4991337;28;20046;-65
2023/10/05 06:25:15;;;;;;;7.88;2.47;;;;;;;;;;4994361;28;20050;-66
2023/10/05 06:27:45;;;;;;;7.20;2.25;;;;;;;;;;4976569;28;20440;-66
2023/10/05 06:30:11;;;;;;;7.90;2.35;;;;;;;;;;4992652;28;20042;-66
2023/10/05 06:32:38;;;;;;;5.72;2.10;;;20.70;93.30;;;;;;4989280;28;20039;-65
2023/10/05 06:35:08;;;;;;;8.55;2.50;;;20.70;92.70;;;;;;4990640;28;20471;-65
2023/10/05 06:37:38;;;;;;;6.70;2.40;;;20.80;93.30;;;;;;4990966;28;20054;-66
2023/10/05 06:40:21;;;;;;;6.30;2.30;;;20.50;93.20;;;;;;4991395;28;20162;-66
2023/10/05 06:42:49;;;;;;;7.85;2.50;;;20.60;93.20;;;;;;4991978;28;20042;-65
2023/10/05 06:45:15;;;;;;;8.73;2.42;;;20.90;93.30;;;;;;4990278;28;20047;-66
2023/10/05 06:47:42;;;;;;;7.70;2.20;;;;;;;;;;4975659;28;20109;-66
2023/10/05 06:50:08;;;;;;;7.18;2.40;;;;;;;;;;4989227;28;20074;-65
2023/10/05 06:52:42;;;;;;;6.40;2.45;;;20.50;93.20;;;;;;4972644;28;20050;-65
2023/10/05 06:55:11;;;;;;;6.30;2.70;;;20.80;93.30;;;;;;4974523;28;20124;-65
2023/10/05 06:57:38;;;;;;;6.88;2.30;;;20.60;93.30;;;;;;4974985;28;20064;-65
2023/10/05 07:00:16;;;;;;;6.25;2.90;;;20.90;93.30;;;;;;4991557;28;20050;-68
2023/10/05 07:02:45;;;;;;;6.15;2.60;;;21.00;93.50;;;;;;4986215;28;20120;-65
2023/10/05 07:05:12;;;;;;;7.25;2.78;;;20.80;93.30;;;;;;4959386;28;20061;-66
2023/10/05 07:07:38;;;;;;;6.63;2.40;;;;;;;;;;4975542;28;20050;-66
2023/10/05 07:10:05;;;;;;;7.20;2.60;;;20.70;93.50;;;;;;4990298;28;20046;-65
2023/10/05 07:12:35;;;;;;;7.47;2.80;;;20.90;93.30;;;;;;4976102;28;20488;-67
2023/10/05 07:15:05;;;;;;;6.30;2.22;;;20.70;93.30;;;;;;4959728;28;20092;-67
2023/10/05 07:17:32;;;;;;;7.47;2.42;;;22.60;92.70;;;;;;4972754;28;20084;-67
2023/10/05 07:20:01;;;;;;;9.45;2.55;;;20.80;93.30;;;;;;4974504;28;20051;-67
2023/10/05 07:22:27;;;;;;;9.02;2.50;;;20.70;93.30;;;;;;4975020;28;20042;-68
2023/10/05 07:24:53;;;;;;;10.38;2.90;;;;;;;;;;4954215;28;20125;-67
2023/10/05 07:27:19;;;;;;;7.20;2.80;;;;;;;;;;4991266;28;20057;-66
2023/10/05 07:29:45;;;;;;;11.20;3.60;;;;;;;;;;4997902;28;20042;-66
2023/10/05 07:32:12;;;;;;;9.65;2.92;;;20.80;93.30;;;;;;4972902;28;20047;-65
2023/10/05 07:34:40;;;;;;;10.95;3.17;;;20.80;93.30;;;;;;4970809;28;20043;-65
2023/10/05 07:37:10;;;;;;;6.78;2.78;;;20.60;93.30;;;;;;4954962;28;20062;-64
2023/10/05 07:39:37;;;;;;;11.38;3.30;;;20.70;93.00;;;;;;4991226;28;20073;-64
2023/10/05 07:42:03;;;;;;;9.82;3.35;;;20.80;93.40;;;;;;4988177;28;20054;-65
2023/10/05 07:44:29;;;;;;;9.95;3.33;;;;;;;;;;4991048;28;20039;-65
2023/10/05 07:46:55;;;;;;;12.60;3.50;;;20.60;93.40;;;;;;4998038;28;20037;-65
2023/10/05 07:49:21;;;;;;;8.82;2.80;;;;;;;;;;4993781;28;20038;-63
2023/10/05 07:51:47;;;;;;;9.23;2.92;;;20.60;93.50;;;;;;4992402;28;20053;-65
2023/10/05 07:54:12;;;;;;;8.30;3.22;;;20.70;93.60;;;;;;4990249;28;20137;-64
2023/10/05 07:56:38;;;;;;;11.50;3.08;;;20.70;93.60;;;;;;4990000;28;20045;-65
2023/10/05 07:59:06;;;;;;;9.88;3.38;;;20.60;93.70;;;;;;4987332;28;20097;-65
2023/10/05 08:01:32;;;;;;;12.15;3.50;;;;;;;;;;4995642;28;20057;-66
2023/10/05 08:03:59;;;;;;;9.02;3.25;;;;;;;;;;4988367;28;20070;-65
2023/10/05 08:06:25;;;;;;;9.32;3.20;;;;;;;;;;4987606;28;20484;-66
2023/10/05 08:08:53;;;;;;;12.50;3.50;;;;;;;;;;4999028;28;20049;-66
2023/10/05 08:11:20;;;;;;;10.27;3.70;;;;;;;;;;4975215;28;20447;-66
2023/10/05 08:13:47;;;;;;;12.25;3.58;;;;;;;;;;4991572;28;20038;-66
2023/10/05 08:16:14;;;;;;;7.85;2.80;;;;;;;;;;4987174;28;20055;-66
2023/10/05 08:18:41;;;;;;;10.65;3.15;;;;;;;;;;4990637;28;20057;-66
2023/10/05 08:21:08;;;;;;;7.88;3.25;;;;;;;;;;5000534;28;20107;-66
2023/10/05 08:23:34;;;;;;;10.07;3.17;;;;;;;;;;4998558;28;20073;-66
2023/10/05 08:26:00;;;;;;;8.90;2.90;;;;;;;;;;4988603;28;20046;-65
2023/10/05 08:28:26;;;;;;;12.02;3.50;;;;;;;;;;4989864;28;20522;-67
2023/10/05 08:31:07;;;;;;;9.60;3.42;;;20.70;93.70;;;;;;4990296;28;20038;-66
2023/10/05 08:33:37;;;;;;;9.27;3.03;;;20.70;93.80;;;;;;4989153;28;20129;-66
2023/10/05 08:36:06;;;;;;;10.25;3.88;;;20.70;93.90;;;;;;4988998;28;20062;-67
2023/10/05 08:38:35;;;;;;;10.30;3.40;;;20.70;93.80;;;;;;4990976;28;20107;-67
2023/10/05 08:41:06;;;;;;;7.80;3.00;;;;;;;;;;4986270;28;20042;-66
2023/10/05 08:43:33;;;;;;;10.25;3.53;;;20.70;93.80;;;;;;4991952;28;20053;-66
2023/10/05 08:46:03;;;;;;;12.70;3.72;;;20.70;92.70;;;;;;4995003;28;20050;-66
2023/10/05 08:48:35;;;;;;;7.05;3.33;;;;;;;;;;4985471;28;20050;-65
2023/10/05 08:51:09;;;;;;;8.85;3.42;;;20.80;93.80;;;;;;4982869;28;20054;-66
2023/10/05 08:53:41;;;;;;;7.82;3.05;;;;;;;;;;4990923;28;20053;-65
2023/10/05 08:56:12;;;;;;;8.88;3.40;;;20.80;93.80;;;;;;4987213;28;20049;-66
2023/10/05 08:58:42;;;;;;;8.77;3.50;;;20.70;93.80;;;;;;4969934;28;20055;-65
2023/10/05 09:01:33;;;;;;;7.70;3.05;;;20.80;93.80;;;;;;4973138;28;20101;-66
2023/10/05 09:04:23;;;;;;;9.32;2.88;;;20.80;93.90;;;;;;4976724;28;20134;-67
2023/10/05 09:07:14;;;;;;;7.38;3.10;;;20.80;93.90;;;;;;4978158;28;20104;-66
2023/10/05 09:09:54;;;;;;;9.35;3.10;;;;;;;;;;4995569;28;20470;-66
2023/10/05 09:12:34;;;;;;;9.55;3.45;;;20.80;93.90;;;;;;4992002;28;20086;-66
2023/10/05 09:15:22;;;;;;;6.82;2.85;;;20.90;93.90;;;;;;4972952;28;20125;-66
2023/10/05 09:17:57;;;;;;;8.00;3.22;;;20.80;93.90;;;;;;4965769;28;20035;-66
2023/10/05 09:20:33;;;;;;;8.27;3.05;;;20.70;93.90;;;;;;4988154;28;20088;-66
2023/10/05 09:23:04;;;;;;;6.45;2.50;;;20.80;92.70;;;;;;4974471;28;20054;-67
2023/10/05 09:25:34;;;;;;;7.93;3.38;;;20.80;93.90;;;;;;4939574;28;20480;-67
2023/10/05 09:28:13;;;;;;;8.38;3.20;;;21.30;94.00;;;;;;4953171;28;20489;-67
2023/10/05 09:30:55;;;;;;;7.25;3.15;;;20.70;93.90;;;;;;4977072;28;20054;-67
2023/10/05 09:33:47;;;;;;;6.35;2.63;;;20.90;93.90;;;;;;4991121;28;20051;-67
2023/10/05 09:36:19;;;;;;;7.18;3.00;;;20.90;93.90;;;;;;4993148;28;20073;-66
2023/10/05 09:38:46;;;;;;;7.63;3.08;;;21.00;94.00;;;;;;4964511;28;20453;-66
2023/10/05 09:41:15;;;;;;;6.45;2.90;;;21.10;93.50;;;;;;5008895;28;20050;-66
2023/10/05 09:43:42;;;;;;;6.25;2.63;;;;;;;;;;4994916;28;20046;-67
2023/10/05 09:46:11;;;;;;;6.50;2.65;;;21.30;93.90;;;;;;4994590;28;20121;-66
2023/10/05 09:48:38;;;;;;;6.63;3.08;;;;;;;;;;4995420;28;20070;-66
2023/10/05 09:51:10;;;;;;;6.07;2.83;;;;;;;;;;4992461;28;20133;-65
2023/10/05 09:53:43;;;;;;;6.68;2.67;;;21.30;93.80;;;;;;5006901;28;20176;-67
2023/10/05 09:56:12;;;;;;;8.20;3.10;;;21.20;93.80;;;;;;5001437;28;20057;-66
2023/10/05 09:58:39;;;;;;;7.45;2.90;;;21.20;92.60;;;;;;5028471;28;20057;-65
2023/10/05 10:01:20;;;;;;;10.13;3.17;;;;;;;;;;5014054;28;20052;-66
2023/10/05 10:03:45;;;;;;;6.47;2.90;;;21.40;93.80;;;;;;5041576;28;20088;-66
2023/10/05 10:06:14;;;;;;;6.50;3.03;;;21.30;93.00;;;;;;4979919;28;20074;-66
2023/10/05 10:08:50;;;;;;;10.52;2.85;;;21.30;92.60;;;;;;5029574;28;20057;-66
2023/10/05 10:11:24;;;;;;;6.72;2.75;;;21.30;93.70;;;;;;4964151;28;20518;-67
2023/10/05 10:14:01;;;;;;;7.30;2.80;;;21.40;91.90;;;;;;5005704;28;20963;-66
2023/10/05 10:16:27;;;;;;;8.88;2.95;;;;;;;;;;4993857;28;20057;-66
2023/10/05 10:19:03;;;;;;;8.80;3.17;;;21.40;93.70;;;;;;4977277;28;20462;-66
2023/10/05 10:21:35;;;;;;;6.78;3.03;;;21.50;93.70;;;;;;4991580;28;20412;-67
2023/10/05 10:24:11;;;;;;;8.75;2.97;;;21.30;93.80;;;;;;4961653;28;20578;-67
2023/10/05 10:27:07;;;;;;;6.85;2.95;;;21.40;93.70;;;;;;4996529;28;20055;-67
2023/10/05 10:30:00;;;;;;;7.85;2.92;;;21.50;93.80;;;;;;4982378;28;20137;-69
2023/10/05 10:32:32;;;;;;;7.47;3.10;;;21.40;93.70;;;;;;4965568;28;20057;-69
2023/10/05 10:35:12;;;;;;;7.53;3.28;;;21.40;93.80;;;;;;4995367;28;20128;-69
2023/10/05 10:37:48;;;;;;;9.45;3.28;;;21.40;93.80;;;;;;4967480;28;20050;-68
2023/10/05 10:45:40;;;;;;;8.65;3.65;;;21.60;94.00;;;;;;4984662;28;20047;-68
2023/10/05 10:48:12;;;;;;;7.15;3.13;;;;;;;;;;4988930;28;20125;-68
2023/10/05 10:50:39;;;;;;;9.63;3.40;;;21.70;94.30;;;;;;4992199;28;20519;-68
2023/10/05 10:53:17;;;;;;;11.73;3.30;;;21.40;93.90;;;;;;4991501;28;20049;-68
2023/10/05 10:55:51;;;;;;;6.25;3.42;;;21.60;94.00;;;;;;4990453;28;20105;-69
2023/10/05 10:58:24;;;;;;;8.10;3.10;;;21.50;93.10;;;;;;4975940;28;20510;-68
2023/10/05 11:00:59;;;;;;;9.73;3.08;;;21.50;94.30;;;;;;4992436;28;20042;-68
2023/10/05 11:03:30;;;;;;;8.55;3.20;;;;;;;;;;4977194;28;20129;-69
2023/10/05 11:05:58;;;;;;;6.28;2.80;;;21.30;94.00;;;;;;4988516;28;20106;-69
2023/10/05 11:08:24;;;;;;;7.20;3.10;;;21.50;94.00;;;;;;4975837;28;20050;-68
2023/10/05 11:11:24;;;;;;;7.50;3.03;;;21.60;94.40;;;;;;4992661;28;20364;-68
2023/10/05 11:13:49;;;;;;;6.63;2.97;;;21.30;94.00;;;;;;4989764;28;20046;-68
2023/10/05 11:16:16;;;;;;;7.38;3.13;;;;;;;;;;4988207;28;20105;-68
2023/10/05 11:18:58;;;;;;;7.57;2.70;;;21.40;94.10;;;;;;4998394;28;20089;-69
2023/10/05 11:21:32;;;;;;;7.05;3.10;;;21.40;94.00;;;;;;4992297;28;20054;-67
2023/10/05 11:24:07;;;;;;;8.85;3.05;;;21.70;93.00;;;;;;4978184;28;20046;-68
2023/10/05 11:26:33;;;;;;;6.50;3.08;;;;;;;;;;4989730;28;20042;-69
2023/10/05 11:29:14;;;;;;;6.63;2.55;;;21.40;94.30;;;;;;4993302;28;20050;-69
2023/10/05 11:31:41;;;;;;;6.13;2.50;;;21.30;92.80;;;;;;4992592;28;20448;-70
2023/10/05 11:34:11;;;;;;;6.57;2.53;;;21.60;94.50;;;;;;4992541;28;20125;-69
2023/10/05 11:36:39;;;;;;;6.70;2.72;;;;;;;;;;4986146;28;20057;-68
2023/10/05 11:39:20;;;;;;;4.88;2.38;;;21.60;92.90;;;;;;4971034;28;20569;-68
2023/10/05 11:41:46;;;;;;;5.22;2.33;;;21.40;93.50;;;;;;4972646;28;20046;-68
2023/10/05 11:44:15;;;;;;;6.20;2.20;;;21.40;94.20;;;;;;4973535;28;20142;-68
2023/10/05 11:46:48;;;;;;;7.07;2.50;;;21.50;94.40;;;;;;4988318;28;20073;-69
2023/10/05 11:49:14;;;;;;;7.47;2.67;;;21.40;94.30;;;;;;4993344;28;20382;-69
2023/10/05 11:51:44;;;;;;;7.88;2.45;;;21.40;93.30;;;;;;4991999;28;20138;-68
2023/10/05 11:54:19;;;;;;;5.95;2.47;;;21.50;93.10;;;;;;4990119;28;20404;-67
2023/10/05 11:56:46;;;;;;;4.95;2.42;;;;;;;;;;4984577;28;20500;-68
2023/10/05 11:59:13;;;;;;;7.22;2.70;;;21.50;94.20;;;;;;4991560;28;20121;-68
2023/10/05 12:01:42;;;;;;;7.18;2.30;;;21.50;94.40;;;;;;4991714;28;20061;-67
2023/10/05 12:04:09;;;;;;;6.18;2.30;;;21.50;94.20;;;;;;4992236;28;20050;-68
2023/10/05 12:06:37;;;;;;;7.28;2.20;;;21.60;94.30;;;;;;4989682;28;20046;-68
2023/10/05 12:09:07;;;;;;;4.50;1.88;;;;;;;;;;4990249;28;20697;-67
2023/10/05 12:11:33;;;;;;;5.63;2.08;;;21.50;92.80;;;;;;4992289;28;20062;-68
2023/10/05 12:14:00;;;;;;;5.43;2.03;;;;;;;;;;4979562;28;20051;-69
2023/10/05 12:16:32;;;;;;;5.47;2.40;;;21.90;93.00;;;;;;4976455;28;20046;-68
2023/10/05 12:19:13;;;;;;;9.65;2.22;;;21.50;94.00;;;;;;4974697;28;20391;-69
2023/10/05 12:21:45;;;;;;;12.93;2.78;;;21.80;94.10;;;;;;4991701;28;20043;-68
2023/10/05 12:24:12;;;;;;;16.60;2.70;;;;;;;;;;4992150;28;20042;-68
2023/10/05 12:26:39;;;;;;;13.50;2.47;;;21.60;92.60;;;;;;4990759;28;20081;-67
2023/10/05 12:29:17;;;;;;;12.60;2.85;;;21.80;94.00;;;;;;5006886;28;20046;-68
2023/10/05 12:31:45;;;;;;;10.57;2.72;;;21.60;94.00;;;;;;4987159;28;20132;-68
2023/10/05 12:34:14;;;;;;;9.13;2.08;;;;;;;;;;4976723;28;20058;-68
2023/10/05 12:36:49;;;;;;;9.30;2.38;;;21.60;92.80;;;;;;4994717;28;20392;-68
2023/10/05 12:39:17;;;;;;;7.93;2.40;;;21.80;94.00;;;;;;4977302;28;20058;-68
2023/10/05 12:41:49;;;;;;;9.70;2.20;;;21.80;94.00;;;;;;4992777;28;20058;-68
2023/10/05 12:44:15;;;;;;;9.60;2.25;;;21.80;93.90;;;;;;4993856;28;20104;-68
2023/10/05 12:46:46;;;;;;;5.82;2.20;;;21.60;93.80;;;;;;4992740;28;20046;-68
2023/10/05 12:49:14;;;;;;;6.22;2.00;;;;;;;;;;4973571;28;20531;-68
2023/10/05 12:51:40;;;;;;;7.28;2.38;;;;;;;;;;4990566;28;20046;-69
2023/10/05 12:54:18;;;;;;;9.80;2.15;;;21.90;93.70;;;;;;4992963;28;20038;-67
2023/10/05 12:56:50;;;;;;;8.38;2.25;;;21.90;93.60;;;;;;4974993;28;20527;-67
2023/10/05 12:59:19;;;;;;;9.68;2.13;;;22.00;93.60;;;;;;4988797;28;20416;-67
2023/10/05 13:01:46;;;;;;;9.68;2.08;;;22.00;93.60;;;;;;4993613;28;20479;-67
2023/10/05 13:04:12;;;;;;;7.72;2.40;;;21.80;92.10;;;;;;4989056;28;20053;-67
2023/10/05 13:06:39;;;;;;;8.82;2.22;;;;;;;;;;4965635;28;20045;-68
2023/10/05 13:09:11;;;;;;;8.40;2.10;;;;;;;;;;4960619;28;20042;-68
2023/10/05 13:11:39;;;;;;;15.57;2.78;;;;;;;;;;4979299;28;20408;-68
2023/10/05 13:14:14;;;;;;;7.50;2.33;;;22.20;92.20;;;;;;4992964;28;20090;-67
2023/10/05 13:16:40;;;;;;;9.88;2.67;;;;;;;;;;4979025;28;20058;-68
2023/10/05 13:19:09;;;;;;;13.27;2.60;;;;;;;;;;4993064;28;20049;-68
2023/10/05 13:21:42;;;;;;;6.53;1.90;;;21.90;93.60;;;;;;4986017;28;20042;-68
2023/10/05 13:24:12;;;;;;;10.52;2.38;;;;;;;;;;4976471;28;20056;-68
2023/10/05 13:26:44;;;;;;;6.28;1.95;;;21.80;92.50;;;;;;4995130;28;20034;-68
2023/10/05 13:29:25;;;;;;;7.43;1.77;;;21.80;93.00;;;;;;4977770;28;20448;-68
2023/10/05 13:31:53;;;;;;;13.55;2.85;;;;;;;;;;4993429;28;20062;-68
2023/10/05 13:34:19;;;;;;;7.38;2.17;;;21.80;93.80;;;;;;4992779;28;20042;-68
2023/10/05 13:36:49;;;;;;;8.20;2.15;;;21.80;92.60;;;;;;4994039;28;20053;-68
2023/10/05 13:39:20;;;;;;;8.70;1.95;;;21.80;93.80;;;;;;4989382;28;20089;-68
2023/10/05 13:42:35;;;;;;;6.45;1.73;;;21.70;93.80;;;;;;4978664;28;20074;-67
2023/10/05 13:44:40;;;;;;;5.47;1.77;;;21.50;94.30;;;;;;4983223;28;20054;-68
2023/10/05 13:47:09;;;;;;;6.32;1.83;;;21.80;92.80;;;;;;4977566;28;20065;-68
2023/10/05 13:49:41;;;;;;;4.93;1.75;;;21.70;93.80;;;;;;4993791;28;20104;-67
2023/10/05 13:52:09;;;;;;;6.45;1.65;;;21.80;93.90;;;;;;4990999;28;20501;-67
2023/10/05 13:54:35;;;;;;;6.35;1.55;;;21.70;93.90;;;;;;4959898;28;20105;-68
2023/10/05 13:57:01;;;;;;;3.65;1.55;;;21.70;93.90;;;;;;4980951;28;20054;-67
2023/10/05 13:59:28;;;;;;;4.47;1.63;;;21.70;94.00;;;;;;4992906;28;20467;-68
2023/10/05 14:01:59;;;;;;;6.70;1.67;;;21.80;93.90;;;;;;4992898;28;20522;-68